Time;durP1;ratioP1;P1;durP2;ratioP2;P2;SDS_P1;SDS_P2;PMS_P1;PMS_P2;Temp;Humidity;BMP_temperature;BMP_pressure;BME280_temperature;BME280_humidity;BME280_pressure;Samples;Min_cycle;Max_cycle;Signal;HPM_P1;HPM_P2
2023/10/06 04:00:47;;;;;;;15.80;11.00;;;13.60;99.90;;;;;;5812108;23;20788;-69
2023/10/06 04:03:14;;;;;;;12.57;8.80;;;13.60;99.90;;;;;;4945928;29;20465;-69
2023/10/06 04:05:44;;;;;;;12.77;9.50;;;13.60;99.90;;;;;;4953579;28;20808;-70
2023/10/06 04:08:15;;;;;;;9.10;8.17;;;13.60;99.90;;;;;;4953618;28;20484;-70
2023/10/06 04:10:42;;;;;;;13.17;9.93;;;13.60;99.90;;;;;;4953474;28;20484;-70
2023/10/06 04:13:09;;;;;;;11.20;8.30;;;13.60;99.90;;;;;;4953372;28;20468;-70
2023/10/06 04:15:38;;;;;;;15.10;9.50;;;13.60;99.90;;;;;;4970131;23;20501;-70
2023/10/06 04:18:10;;;;;;;11.93;8.77;;;13.60;99.90;;;;;;4942808;29;20465;-70
2023/10/06 04:20:38;;;;;;;12.43;7.83;;;13.60;99.90;;;;;;4949073;28;20460;-70
2023/10/06 04:23:05;;;;;;;13.83;7.47;;;13.60;99.90;;;;;;4953713;28;20539;-71
2023/10/06 04:25:37;;;;;;;14.00;8.20;;;13.60;99.90;;;;;;4953538;28;20495;-71
2023/10/06 04:28:05;;;;;;;11.43;8.67;;;13.60;99.90;;;;;;4953654;28;20492;-70
2023/10/06 04:30:34;;;;;;;10.27;7.40;;;13.60;99.90;;;;;;4953520;28;20469;-71
2023/10/06 04:33:00;;;;;;;9.37;7.90;;;13.60;99.90;;;;;;4953705;28;20555;-70
2023/10/06 04:35:29;;;;;;;8.87;7.20;;;13.60;99.90;;;;;;4953687;28;20484;-71
2023/10/06 04:37:56;;;;;;;9.70;7.00;;;13.60;99.90;;;;;;4953575;28;20471;-71
2023/10/06 04:40:23;;;;;;;12.83;7.30;;;13.60;99.90;;;;;;4956269;28;20974;-70
2023/10/06 04:42:50;;;;;;;8.10;6.37;;;13.60;99.90;;;;;;4956981;28;20465;-70
2023/10/06 04:45:17;;;;;;;10.43;6.03;;;13.60;99.90;;;;;;4956841;28;20488;-71
2023/10/06 04:47:43;;;;;;;12.43;7.80;;;13.60;99.90;;;;;;4957243;28;20499;-71
2023/10/06 04:50:11;;;;;;;10.73;6.83;;;13.60;99.90;;;;;;4957084;28;20468;-71
2023/10/06 04:52:40;;;;;;;7.00;6.30;;;13.60;99.90;;;;;;4957208;28;20490;-71
2023/10/06 04:55:11;;;;;;;6.53;5.93;;;13.60;99.90;;;;;;4956929;28;20480;-71
2023/10/06 04:57:38;;;;;;;5.10;4.70;;;13.60;99.90;;;;;;4956976;28;20474;-71
2023/10/06 05:00:13;;;;;;;5.50;4.90;;;13.60;99.90;;;;;;4956914;28;20838;-70
2023/10/06 05:02:42;;;;;;;9.67;5.60;;;13.60;99.90;;;;;;4957092;28;20843;-70
2023/10/06 05:05:10;;;;;;;6.60;5.93;;;13.70;99.90;;;;;;4956430;28;20492;-70
2023/10/06 05:07:37;;;;;;;5.63;5.03;;;13.70;99.90;;;;;;4956733;28;20551;-71
2023/10/06 05:10:08;;;;;;;9.70;5.57;;;13.70;99.90;;;;;;4956599;28;20465;-69
2023/10/06 05:12:37;;;;;;;9.10;6.40;;;13.70;99.90;;;;;;4956906;28;20563;-71
2023/10/06 05:15:07;;;;;;;14.97;6.00;;;13.60;99.90;;;;;;4956318;28;20496;-71
2023/10/06 05:17:34;;;;;;;6.40;5.13;;;13.70;99.90;;;;;;4950604;28;20489;-71
2023/10/06 05:20:00;;;;;;;5.90;4.87;;;13.70;99.90;;;;;;4955022;28;20472;-70
2023/10/06 05:22:27;;;;;;;7.47;5.27;;;13.70;99.90;;;;;;4956405;28;20850;-70
2023/10/06 05:24:54;;;;;;;6.67;6.20;;;13.70;99.90;;;;;;4956154;28;20492;-70
2023/10/06 05:27:22;;;;;;;5.93;5.43;;;13.70;99.90;;;;;;4956458;28;20864;-70
2023/10/06 05:29:50;;;;;;;8.67;5.80;;;13.60;99.90;;;;;;4956564;28;20471;-70
2023/10/06 05:32:17;;;;;;;6.87;5.67;;;13.60;99.90;;;;;;4956387;28;20481;-71
2023/10/06 05:34:43;;;;;;;11.23;7.70;;;13.60;99.90;;;;;;4956402;28;20481;-70
2023/10/06 05:37:12;;;;;;;7.10;6.53;;;13.60;99.90;;;;;;4955916;28;20464;-70
2023/10/06 05:39:41;;;;;;;6.73;5.30;;;13.60;99.90;;;;;;4956301;28;20555;-70
2023/10/06 05:42:09;;;;;;;10.73;6.47;;;13.60;99.90;;;;;;4948123;28;20476;-70
2023/10/06 05:44:39;;;;;;;10.40;6.97;;;13.60;99.90;;;;;;4955946;28;20485;-70
2023/10/06 05:47:08;;;;;;;8.97;5.43;;;13.60;99.90;;;;;;4955845;28;20488;-70
2023/10/06 05:49:35;;;;;;;7.33;5.60;;;13.60;99.90;;;;;;4955501;28;20891;-70
2023/10/06 05:52:03;;;;;;;6.50;5.90;;;13.60;99.90;;;;;;4955759;28;20978;-70
2023/10/06 05:54:30;;;;;;;8.13;5.43;;;13.60;99.90;;;;;;4955798;28;20491;-70
2023/10/06 05:56:57;;;;;;;10.47;6.27;;;13.60;99.90;;;;;;4956252;28;20475;-70
2023/10/06 05:59:25;;;;;;;6.23;5.63;;;13.70;99.90;;;;;;4955532;28;20564;-70
2023/10/06 06:01:56;;;;;;;13.40;5.70;;;13.70;99.90;;;;;;4955623;28;20477;-70
2023/10/06 06:04:27;;;;;;;5.80;5.10;;;13.70;99.90;;;;;;4955532;28;20960;-70
2023/10/06 06:06:56;;;;;;;7.17;6.00;;;13.70;99.90;;;;;;4955803;28;20468;-70
2023/10/06 06:09:23;;;;;;;8.47;5.80;;;13.70;99.90;;;;;;4956027;28;20542;-71
2023/10/06 06:11:50;;;;;;;5.83;5.33;;;13.70;99.90;;;;;;4955570;28;20475;-71
2023/10/06 06:14:20;;;;;;;7.60;5.97;;;13.70;99.90;;;;;;4955245;28;20573;-70
2023/10/06 06:16:47;;;;;;;6.03;5.50;;;13.70;99.90;;;;;;4955388;28;20900;-70
2023/10/06 06:19:15;;;;;;;11.63;6.57;;;13.70;99.90;;;;;;4955786;28;20460;-70
2023/10/06 06:21:42;;;;;;;10.00;5.70;;;13.70;99.90;;;;;;4947590;28;20461;-70
2023/10/06 06:24:10;;;;;;;9.83;5.43;;;13.70;99.90;;;;;;4947150;28;20520;-70
2023/10/06 06:26:37;;;;;;;4.90;4.50;;;13.70;99.90;;;;;;4955246;28;20465;-71
2023/10/06 06:29:04;;;;;;;7.20;4.70;;;13.70;99.90;;;;;;4955023;28;20503;-70
2023/10/06 06:31:32;;;;;;;8.30;5.40;;;13.70;99.90;;;;;;4955123;28;20477;-70
2023/10/06 06:33:59;;;;;;;6.50;4.73;;;13.70;99.90;;;;;;4954835;28;20520;-70
2023/10/06 06:36:31;;;;;;;6.33;4.23;;;13.70;99.90;;;;;;4955184;28;20985;-70
2023/10/06 06:38:58;;;;;;;9.30;6.70;;;13.80;99.90;;;;;;4955085;28;20559;-70
2023/10/06 06:41:25;;;;;;;14.57;5.80;;;13.70;99.90;;;;;;4955096;28;20464;-70
2023/10/06 06:43:57;;;;;;;9.07;5.60;;;13.80;99.90;;;;;;4954459;28;20469;-70
2023/10/06 06:46:26;;;;;;;5.97;5.37;;;13.80;99.90;;;;;;4955220;28;20892;-70
2023/10/06 06:48:53;;;;;;;5.70;5.13;;;13.80;99.90;;;;;;4946707;28;21102;-70
2023/10/06 06:51:22;;;;;;;9.77;5.37;;;13.90;99.90;;;;;;4955000;28;20955;-70
2023/10/06 06:53:50;;;;;;;7.70;5.40;;;13.90;99.90;;;;;;4954441;28;20471;-69
2023/10/06 06:56:17;;;;;;;5.07;4.57;;;13.90;99.90;;;;;;4946706;28;20471;-70
2023/10/06 06:58:43;;;;;;;13.37;5.60;;;14.00;99.90;;;;;;4954559;28;20957;-70
2023/10/06 07:01:14;;;;;;;5.03;4.33;;;13.90;99.90;;;;;;4954510;28;20469;-70
2023/10/06 07:03:41;;;;;;;4.23;4.03;;;14.00;99.90;;;;;;4954275;28;20465;-70
2023/10/06 07:06:12;;;;;;;7.53;5.13;;;14.00;99.90;;;;;;4951796;28;20956;-70
2023/10/06 07:08:39;;;;;;;6.60;5.37;;;14.00;99.90;;;;;;4949944;29;20489;-70
2023/10/06 07:11:10;;;;;;;5.53;4.60;;;14.10;99.90;;;;;;4954603;28;21078;-70
2023/10/06 07:13:37;;;;;;;6.13;4.53;;;14.10;99.90;;;;;;4954222;28;20816;-71
2023/10/06 07:16:05;;;;;;;4.50;4.20;;;14.20;99.90;;;;;;4954513;28;20464;-71
2023/10/06 07:18:32;;;;;;;9.97;4.10;;;14.20;99.90;;;;;;4954653;28;20603;-70
2023/10/06 07:20:59;;;;;;;9.50;4.80;;;14.20;99.90;;;;;;4954477;28;20460;-70
2023/10/06 07:23:25;;;;;;;4.53;4.10;;;14.20;99.90;;;;;;4954457;28;20461;-70
2023/10/06 07:25:52;;;;;;;4.37;4.07;;;14.20;99.90;;;;;;4954554;28;20488;-70
2023/10/06 07:28:20;;;;;;;10.03;4.67;;;14.20;99.90;;;;;;4954476;28;20504;-70
2023/10/06 07:30:47;;;;;;;4.20;4.00;;;14.30;99.90;;;;;;4954299;28;21163;-70
2023/10/06 07:33:13;;;;;;;6.07;3.87;;;14.30;99.90;;;;;;4954725;28;20468;-70
2023/10/06 07:35:43;;;;;;;6.70;4.10;;;14.30;99.90;;;;;;4954180;28;20490;-70
2023/10/06 07:38:10;;;;;;;6.20;4.77;;;14.30;99.90;;;;;;4946375;28;20471;-70
2023/10/06 07:40:38;;;;;;;4.77;4.00;;;14.30;99.90;;;;;;4939804;28;20476;-70
2023/10/06 07:43:05;;;;;;;6.93;4.23;;;14.30;99.90;;;;;;4937747;29;20557;-70
2023/10/06 07:45:35;;;;;;;4.47;3.87;;;14.30;99.90;;;;;;4949017;28;20516;-70
2023/10/06 07:48:06;;;;;;;4.03;3.50;;;14.30;99.90;;;;;;4937035;29;20516;-71
2023/10/06 07:50:35;;;;;;;4.87;4.47;;;14.30;99.90;;;;;;4935596;29;21008;-72
2023/10/06 07:53:04;;;;;;;6.60;5.30;;;14.30;99.90;;;;;;4935696;29;20461;-71
2023/10/06 07:55:31;;;;;;;14.77;4.07;;;14.40;99.90;;;;;;4936538;29;20486;-72
2023/10/06 07:58:00;;;;;;;5.37;3.40;;;14.40;99.90;;;;;;4935207;29;20461;-71
2023/10/06 08:00:29;;;;;;;4.77;3.43;;;14.50;99.90;;;;;;4935207;29;20465;-72
2023/10/06 08:02:58;;;;;;;3.40;3.17;;;14.50;99.90;;;;;;4934904;29;20473;-71
2023/10/06 08:05:25;;;;;;;2.80;2.70;;;14.50;99.90;;;;;;4948155;29;20577;-72
2023/10/06 08:07:53;;;;;;;3.60;3.17;;;14.60;99.90;;;;;;4954049;28;20749;-72
2023/10/06 08:10:20;;;;;;;5.70;3.50;;;14.60;99.90;;;;;;4954213;28;20473;-72
2023/10/06 08:12:49;;;;;;;3.87;3.50;;;14.60;99.90;;;;;;4954326;28;20466;-72
2023/10/06 08:15:21;;;;;;;5.83;3.77;;;14.70;99.90;;;;;;4957950;28;20489;-72
2023/10/06 08:17:50;;;;;;;5.93;3.03;;;14.70;99.90;;;;;;4950243;28;20913;-71
2023/10/06 08:20:20;;;;;;;8.13;4.40;;;14.80;99.90;;;;;;4950316;28;20475;-71
2023/10/06 08:22:47;;;;;;;4.80;2.97;;;14.80;99.90;;;;;;4958023;28;20477;-72
2023/10/06 08:25:14;;;;;;;4.00;3.60;;;14.90;99.90;;;;;;4958079;28;20487;-72
2023/10/06 08:27:43;;;;;;;4.77;2.87;;;14.90;99.90;;;;;;4957821;28;20466;-72
2023/10/06 08:30:16;;;;;;;4.17;3.03;;;15.00;99.90;;;;;;4957584;28;20476;-72
2023/10/06 08:32:43;;;;;;;2.80;2.60;;;15.00;99.90;;;;;;4957874;28;20895;-72
2023/10/06 08:35:19;;;;;;;4.43;2.83;;;15.10;99.90;;;;;;4958716;28;20492;-72
2023/10/06 08:38:09;;;;;;;3.10;2.77;;;15.20;99.90;;;;;;4960403;28;20565;-72
2023/10/06 08:40:44;;;;;;;3.90;3.40;;;15.20;99.90;;;;;;4959243;28;20470;-72
2023/10/06 08:43:14;;;;;;;3.20;3.00;;;15.30;99.90;;;;;;4957233;28;20576;-72
2023/10/06 08:45:42;;;;;;;4.40;3.07;;;15.30;99.90;;;;;;4957302;28;20481;-72
2023/10/06 08:48:13;;;;;;;5.30;3.63;;;15.20;99.90;;;;;;4957258;28;20896;-72
2023/10/06 08:50:43;;;;;;;4.77;2.70;;;15.20;99.90;;;;;;4957130;28;20471;-71
2023/10/06 08:53:13;;;;;;;3.03;2.60;;;15.20;99.90;;;;;;4956805;28;20533;-71
2023/10/06 08:55:41;;;;;;;4.40;3.23;;;15.20;99.90;;;;;;4956942;28;20501;-71
2023/10/06 08:58:08;;;;;;;4.90;3.00;;;15.30;99.90;;;;;;4956974;28;20467;-72
2023/10/06 09:03:21;;;;;;;3.00;2.80;;;15.30;99.90;;;;;;4947275;29;20832;-72
2023/10/06 09:05:50;;;;;;;3.50;2.53;;;15.30;99.90;;;;;;4956898;28;20487;-71
2023/10/06 09:08:18;;;;;;;3.17;2.57;;;15.30;99.90;;;;;;4956768;28;20581;-72
2023/10/06 09:10:49;;;;;;;3.60;3.30;;;15.40;99.90;;;;;;4956685;28;20467;-72
2023/10/06 09:13:18;;;;;;;2.17;2.10;;;15.40;99.90;;;;;;4956758;28;20519;-72
2023/10/06 09:15:55;;;;;;;5.57;3.70;;;15.50;99.90;;;;;;4956449;28;20491;-72
2023/10/06 09:18:24;;;;;;;3.20;2.27;;;15.40;99.90;;;;;;4956821;28;20475;-72
2023/10/06 09:20:51;;;;;;;5.13;2.57;;;15.40;99.90;;;;;;4956485;28;20467;-72
2023/10/06 09:23:31;;;;;;;7.20;3.70;;;15.60;99.90;;;;;;4948607;28;20475;-72
2023/10/06 09:26:00;;;;;;;5.10;2.70;;;15.70;99.90;;;;;;4955420;28;20521;-72
2023/10/06 09:28:27;;;;;;;2.53;2.43;;;15.70;99.90;;;;;;4956062;28;21033;-72
2023/10/06 09:31:00;;;;;;;2.73;2.63;;;15.80;99.90;;;;;;4956556;28;20845;-71
2023/10/06 09:33:28;;;;;;;6.10;4.10;;;15.80;99.90;;;;;;4956494;28;20560;-72
2023/10/06 09:36:07;;;;;;;5.33;3.13;;;15.80;99.90;;;;;;4956283;28;20488;-72
2023/10/06 09:38:36;;;;;;;5.93;3.47;;;15.80;99.90;;;;;;4956076;28;20467;-72
2023/10/06 09:41:05;;;;;;;3.47;3.20;;;15.90;99.90;;;;;;4953951;28;20853;-72
2023/10/06 09:43:34;;;;;;;3.70;2.73;;;16.00;99.90;;;;;;4950265;29;20973;-72
2023/10/06 09:46:06;;;;;;;2.87;2.53;;;16.00;99.90;;;;;;4955956;28;20475;-71
2023/10/06 09:48:35;;;;;;;2.97;2.23;;;16.00;99.90;;;;;;4955974;28;20499;-72
2023/10/06 09:51:06;;;;;;;5.00;2.77;;;16.00;99.90;;;;;;4956191;28;20841;-72
2023/10/06 09:53:37;;;;;;;3.13;2.47;;;16.00;99.90;;;;;;4955724;28;20926;-72
2023/10/06 09:56:06;;;;;;;3.10;2.70;;;16.00;99.90;;;;;;4955629;28;20563;-72
2023/10/06 09:58:33;;;;;;;2.37;1.90;;;16.00;99.90;;;;;;4955795;28;20468;-72
2023/10/06 10:01:02;;;;;;;5.00;3.20;;;16.10;99.90;;;;;;4955694;28;21134;-72
2023/10/06 10:03:29;;;;;;;3.83;2.50;;;16.10;99.90;;;;;;4955872;28;20468;-72
2023/10/06 10:06:00;;;;;;;2.80;2.50;;;16.10;99.90;;;;;;4947581;28;20492;-72
2023/10/06 10:08:30;;;;;;;3.40;2.57;;;16.20;99.90;;;;;;4955751;28;20495;-72
2023/10/06 10:11:01;;;;;;;4.13;2.70;;;16.20;99.90;;;;;;4955622;28;20498;-72
2023/10/06 10:14:08;;;;;;;3.13;2.33;;;16.20;99.90;;;;;;4955592;28;20504;-72
2023/10/06 10:16:53;;;;;;;6.27;2.70;;;16.20;99.90;;;;;;4978585;23;20499;-69
2023/10/06 10:19:23;;;;;;;3.00;2.70;;;16.20;99.90;;;;;;4955601;28;20489;-70
2023/10/06 10:21:50;;;;;;;2.63;2.43;;;16.20;99.90;;;;;;4955313;28;20464;-69
2023/10/06 10:24:21;;;;;;;3.37;2.57;;;16.20;99.90;;;;;;4955684;28;20469;-69
2023/10/06 10:26:51;;;;;;;3.20;2.40;;;16.30;99.90;;;;;;4955226;28;20487;-69
2023/10/06 10:29:31;;;;;;;2.93;2.67;;;16.20;99.90;;;;;;4951604;28;20500;-70
2023/10/06 10:32:01;;;;;;;4.30;2.73;;;16.20;99.90;;;;;;4945682;29;20827;-69
2023/10/06 10:34:33;;;;;;;3.47;2.50;;;16.30;99.90;;;;;;4955514;28;20495;-69
2023/10/06 10:37:16;;;;;;;5.50;3.57;;;16.20;99.90;;;;;;4955213;28;20467;-70
2023/10/06 10:39:49;;;;;;;2.83;2.60;;;16.20;99.90;;;;;;4955381;28;20847;-69
2023/10/06 10:42:21;;;;;;;3.13;2.93;;;16.20;99.90;;;;;;4943986;29;20531;-69
2023/10/06 10:44:49;;;;;;;5.30;3.97;;;16.20;99.90;;;;;;4951444;29;20488;-69
2023/10/06 10:47:17;;;;;;;16.40;11.30;;;16.20;99.90;;;;;;4943973;29;20473;-69
2023/10/06 10:49:46;;;;;;;3.13;2.57;;;16.10;99.90;;;;;;4950775;29;20606;-69
2023/10/06 10:52:13;;;;;;;3.50;3.20;;;16.00;99.90;;;;;;4954649;28;20478;-69
2023/10/06 10:54:42;;;;;;;6.60;2.90;;;16.00;99.90;;;;;;4954798;28;20518;-69
2023/10/06 10:57:11;;;;;;;2.83;2.57;;;15.90;99.90;;;;;;4954677;28;20974;-69
2023/10/06 11:00:14;;;;;;;4.40;4.20;;;15.80;99.90;;;;;;4954650;28;20460;-70
2023/10/06 11:02:43;;;;;;;5.20;2.50;;;15.80;99.90;;;;;;4950380;29;20467;-69
2023/10/06 11:05:10;;;;;;;4.90;2.93;;;15.80;99.90;;;;;;4955208;28;20496;-70
2023/10/06 11:07:37;;;;;;;3.03;2.83;;;15.80;99.90;;;;;;4958752;28;20475;-71
2023/10/06 11:10:05;;;;;;;7.13;3.17;;;15.80;99.90;;;;;;4957966;28;20498;-72
2023/10/06 11:12:35;;;;;;;5.13;3.57;;;15.80;99.90;;;;;;4956074;28;20474;-71
2023/10/06 11:15:13;;;;;;;5.57;3.20;;;15.60;99.90;;;;;;4955284;28;21070;-72
2023/10/06 11:17:43;;;;;;;6.70;3.60;;;15.60;99.90;;;;;;4955955;28;20465;-71
2023/10/06 11:20:15;;;;;;;3.00;2.80;;;15.60;99.90;;;;;;4955478;28;20471;-72
2023/10/06 11:22:53;;;;;;;4.90;3.23;;;15.60;99.90;;;;;;4956140;28;20530;-71
2023/10/06 11:25:26;;;;;;;3.37;2.67;;;15.60;99.90;;;;;;4948273;29;20537;-72
2023/10/06 11:27:57;;;;;;;4.57;2.93;;;15.60;99.90;;;;;;4954792;28;20546;-71
2023/10/06 11:30:28;;;;;;;5.17;3.10;;;15.60;99.90;;;;;;4954842;28;20517;-72
2023/10/06 11:32:57;;;;;;;6.00;3.73;;;15.60;99.90;;;;;;4954691;28;20467;-73
2023/10/06 11:35:25;;;;;;;6.73;3.13;;;15.50;99.90;;;;;;4954338;28;20489;-71
2023/10/06 11:37:52;;;;;;;5.40;3.00;;;15.60;99.90;;;;;;4946580;28;20472;-71
2023/10/06 11:40:21;;;;;;;3.30;3.10;;;15.60;99.90;;;;;;4950689;28;20471;-71
2023/10/06 11:42:48;;;;;;;3.00;2.80;;;15.60;99.90;;;;;;4943011;29;20495;-71
2023/10/06 11:45:24;;;;;;;4.60;3.40;;;15.70;99.90;;;;;;4946921;29;20490;-71
2023/10/06 11:47:52;;;;;;;2.73;2.53;;;15.70;99.90;;;;;;4954179;28;20469;-71
2023/10/06 11:50:25;;;;;;;4.50;3.40;;;15.70;99.90;;;;;;4954319;28;20536;-72
2023/10/06 11:52:53;;;;;;;3.40;2.60;;;15.70;99.90;;;;;;4955087;28;20459;-72
2023/10/06 11:55:29;;;;;;;5.07;2.33;;;15.90;99.90;;;;;;4954432;28;21010;-72
2023/10/06 11:57:58;;;;;;;2.83;2.63;;;15.90;99.90;;;;;;4955260;28;20467;-72
2023/10/06 12:00:40;;;;;;;3.70;3.40;;;16.00;99.90;;;;;;4954468;28;20453;-72
2023/10/06 12:03:10;;;;;;;4.23;2.70;;;16.00;99.90;;;;;;4955222;28;20470;-69
2023/10/06 12:05:41;;;;;;;5.30;3.07;;;16.10;99.90;;;;;;4954588;28;20595;-71
2023/10/06 12:08:09;;;;;;;3.47;2.63;;;16.10;99.90;;;;;;4954782;28;20468;-70
2023/10/06 12:10:47;;;;;;;2.60;2.40;;;16.20;99.90;;;;;;4954430;28;20487;-70
2023/10/06 12:13:14;;;;;;;5.63;2.80;;;16.30;99.90;;;;;;4946345;28;20468;-69
2023/10/06 12:15:44;;;;;;;4.27;2.80;;;16.30;99.90;;;;;;4953911;28;20532;-69
2023/10/06 12:18:11;;;;;;;3.10;2.90;;;16.30;99.90;;;;;;4946181;28;20478;-70
2023/10/06 12:20:40;;;;;;;3.13;2.93;;;16.30;99.90;;;;;;4953989;28;20486;-70
2023/10/06 12:23:07;;;;;;;2.40;2.30;;;16.40;99.90;;;;;;4953748;28;20471;-71
2023/10/06 12:25:36;;;;;;;2.90;2.70;;;16.40;99.90;;;;;;4953845;28;20512;-72
2023/10/06 12:28:03;;;;;;;2.87;2.67;;;16.40;99.90;;;;;;4954040;28;20641;-73
2023/10/06 12:30:36;;;;;;;2.90;2.63;;;16.50;99.90;;;;;;4954637;28;20524;-72
2023/10/06 12:33:03;;;;;;;5.60;2.80;;;16.50;99.90;;;;;;4954070;28;20464;-72
2023/10/06 12:35:30;;;;;;;2.57;2.37;;;16.50;99.90;;;;;;4953830;28;20567;-72
2023/10/06 12:37:58;;;;;;;2.33;2.13;;;16.60;99.90;;;;;;4953786;28;20515;-72
2023/10/06 12:40:26;;;;;;;2.60;2.40;;;16.70;99.90;;;;;;4948980;28;20500;-72
2023/10/06 12:42:52;;;;;;;3.77;2.53;;;16.70;99.90;;;;;;4942830;29;20465;-72
2023/10/06 12:45:19;;;;;;;2.50;2.30;;;16.80;99.90;;;;;;4953377;28;20495;-72
2023/10/06 12:47:46;;;;;;;3.87;3.73;;;16.90;99.90;;;;;;4953557;28;20504;-72
2023/10/06 12:50:16;;;;;;;2.60;2.40;;;16.90;99.90;;;;;;4945350;28;20504;-72
2023/10/06 12:52:49;;;;;;;2.63;2.53;;;17.00;99.90;;;;;;4953635;28;20496;-72
2023/10/06 12:55:21;;;;;;;2.60;2.37;;;17.10;99.90;;;;;;4945831;29;20567;-72
2023/10/06 12:57:48;;;;;;;4.90;3.97;;;17.10;99.90;;;;;;4953400;28;20477;-73
2023/10/06 13:00:16;;;;;;;2.70;2.50;;;17.30;99.90;;;;;;4954421;28;20479;-73
2023/10/06 13:02:43;;;;;;;3.20;2.90;;;17.30;99.90;;;;;;4956960;28;20470;-73
2023/10/06 13:05:13;;;;;;;2.67;2.07;;;17.30;99.90;;;;;;4956396;28;20498;-72
2023/10/06 13:07:40;;;;;;;2.70;2.50;;;17.30;99.90;;;;;;4956712;28;20506;-73
2023/10/06 13:10:08;;;;;;;5.40;2.90;;;17.20;99.90;;;;;;4956945;28;20488;-72
2023/10/06 13:12:39;;;;;;;2.97;2.37;;;17.20;99.90;;;;;;4957270;28;20469;-72
2023/10/06 13:15:09;;;;;;;3.67;2.30;;;17.20;99.90;;;;;;4957331;28;20504;-72
2023/10/06 13:17:36;;;;;;;5.13;2.30;;;17.30;99.90;;;;;;4956394;28;20464;-73
2023/10/06 13:20:07;;;;;;;2.30;2.20;;;17.30;99.90;;;;;;4956954;28;20487;-72
2023/10/06 13:22:35;;;;;;;4.60;2.50;;;17.40;99.90;;;;;;4956687;28;20489;-72
2023/10/06 13:25:02;;;;;;;5.97;2.77;;;17.50;99.90;;;;;;4948442;28;20492;-72
2023/10/06 13:27:29;;;;;;;2.10;2.00;;;17.50;99.90;;;;;;4948550;28;20464;-73
2023/10/06 13:29:57;;;;;;;5.17;3.80;;;17.50;99.90;;;;;;4955993;28;20497;-72
2023/10/06 13:32:24;;;;;;;2.60;2.50;;;17.50;99.90;;;;;;4956125;28;20468;-74
2023/10/06 13:34:52;;;;;;;4.20;2.50;;;17.50;99.90;;;;;;4956159;28;20833;-72
2023/10/06 13:37:21;;;;;;;4.07;2.30;;;17.60;99.90;;;;;;4956054;28;20560;-72
2023/10/06 13:39:48;;;;;;;3.47;2.30;;;17.60;99.90;;;;;;4956310;28;20885;-72
2023/10/06 13:42:16;;;;;;;3.07;2.50;;;17.50;99.90;;;;;;4948394;29;20469;-71
2023/10/06 13:44:44;;;;;;;2.83;2.17;;;17.60;99.90;;;;;;4955990;28;20465;-72
2023/10/06 13:47:12;;;;;;;5.43;2.60;;;17.60;99.90;;;;;;4948076;28;20556;-71
2023/10/06 13:49:40;;;;;;;5.47;2.03;;;17.60;99.90;;;;;;4949626;28;20865;-71
2023/10/06 13:52:08;;;;;;;2.57;2.37;;;17.60;99.90;;;;;;4955103;29;20464;-72
2023/10/06 13:54:35;;;;;;;3.03;1.90;;;17.50;99.90;;;;;;4956330;28;20890;-71
2023/10/06 13:57:04;;;;;;;2.07;1.87;;;17.50;99.90;;;;;;4947767;28;20472;-72
2023/10/06 13:59:31;;;;;;;2.23;2.03;;;17.50;99.90;;;;;;4955949;28;20555;-73
2023/10/06 14:01:58;;;;;;;5.07;3.43;;;17.50;99.90;;;;;;4957809;28;20930;-72
2023/10/06 14:04:26;;;;;;;2.67;2.50;;;17.50;99.90;;;;;;4956809;28;20487;-72
2023/10/06 14:06:55;;;;;;;3.13;1.90;;;17.50;99.90;;;;;;4956445;28;20468;-72
2023/10/06 14:09:25;;;;;;;2.93;2.73;;;17.50;99.90;;;;;;4956564;28;20472;-72
2023/10/06 14:11:53;;;;;;;5.37;3.67;;;17.40;99.90;;;;;;4947763;28;21005;-72
2023/10/06 14:14:40;;;;;;;4.03;2.03;;;17.50;99.90;;;;;;4948798;29;20556;-71
2023/10/06 14:17:16;;;;;;;2.23;2.10;;;17.50;99.90;;;;;;4955736;28;20971;-70
2023/10/06 14:19:44;;;;;;;2.10;2.00;;;17.50;99.90;;;;;;4956004;28;20464;-71
2023/10/06 14:22:11;;;;;;;2.23;2.13;;;17.50;99.90;;;;;;4955234;28;20483;-71
2023/10/06 14:24:39;;;;;;;2.33;2.13;;;17.60;99.90;;;;;;4941143;28;20478;-71
2023/10/06 14:27:06;;;;;;;6.23;2.87;;;17.60;99.90;;;;;;4954331;29;20468;-72
2023/10/06 14:29:33;;;;;;;2.30;2.10;;;17.60;99.90;;;;;;4955074;28;20526;-71
2023/10/06 14:32:11;;;;;;;3.83;2.73;;;17.60;99.90;;;;;;4955579;28;20943;-71
2023/10/06 14:34:56;;;;;;;3.60;2.37;;;17.60;99.90;;;;;;4954757;28;20461;-72
2023/10/06 14:37:38;;;;;;;2.50;2.30;;;17.70;99.90;;;;;;4948393;29;20470;-72
2023/10/06 14:48:20;;;;;;;2.40;2.23;;;17.80;99.90;;;;;;4949838;29;20544;-72
2023/10/06 14:50:56;;;;;;;2.43;2.23;;;17.80;99.90;;;;;;4955026;28;20492;-72
2023/10/06 14:53:25;;;;;;;3.80;2.47;;;17.90;99.90;;;;;;4947909;29;20515;-71
2023/10/06 14:55:52;;;;;;;2.60;2.40;;;17.90;99.90;;;;;;4954740;28;20516;-71
2023/10/06 14:58:19;;;;;;;2.57;2.37;;;18.00;99.90;;;;;;4955018;28;20466;-72
2023/10/06 15:00:46;;;;;;;2.00;2.00;;;18.00;99.90;;;;;;4954878;28;20457;-71
2023/10/06 15:03:16;;;;;;;2.50;2.13;;;18.00;99.90;;;;;;4954760;28;20833;-71
2023/10/06 15:05:43;;;;;;;2.43;2.33;;;18.10;99.90;;;;;;4954707;28;20476;-72
2023/10/06 15:08:12;;;;;;;2.80;1.77;;;18.10;99.90;;;;;;4947064;28;20477;-70
2023/10/06 15:10:41;;;;;;;2.20;1.90;;;18.10;99.90;;;;;;4954764;28;20489;-71
2023/10/06 15:13:07;;;;;;;3.40;2.17;;;18.10;99.90;;;;;;4954822;28;20461;-71
2023/10/06 15:15:34;;;;;;;3.00;2.50;;;18.20;99.90;;;;;;4954365;28;20497;-71
2023/10/06 15:18:02;;;;;;;2.57;2.37;;;18.10;99.90;;;;;;4954344;28;20465;-71
2023/10/06 15:20:29;;;;;;;3.13;2.10;;;18.10;99.90;;;;;;4954338;28;20907;-71
2023/10/06 15:22:55;;;;;;;4.23;2.37;;;18.10;99.90;;;;;;4954068;28;20468;-71
2023/10/06 15:25:22;;;;;;;2.20;2.10;;;18.10;99.90;;;;;;4954319;28;20985;-69
2023/10/06 15:27:51;;;;;;;3.53;2.50;;;18.10;99.90;;;;;;4954575;28;20464;-69
2023/10/06 15:30:18;;;;;;;2.30;2.20;;;18.00;99.90;;;;;;4946919;29;20516;-69
2023/10/06 15:32:45;;;;;;;2.87;2.17;;;18.00;99.90;;;;;;4954197;28;20487;-69
2023/10/06 15:35:12;;;;;;;4.33;2.80;;;18.00;99.90;;;;;;4954042;28;20490;-69
2023/10/06 15:37:39;;;;;;;3.30;2.30;;;18.00;99.90;;;;;;4954611;28;20461;-69
2023/10/06 15:40:08;;;;;;;2.10;1.90;;;18.00;99.90;;;;;;4954465;28;20531;-69
2023/10/06 15:42:38;;;;;;;4.13;2.20;;;17.90;99.90;;;;;;4946436;28;20461;-70
2023/10/06 15:45:08;;;;;;;2.87;2.67;;;17.90;99.90;;;;;;4954451;28;20480;-70
2023/10/06 15:47:35;;;;;;;2.03;1.93;;;17.90;99.90;;;;;;4954294;28;20541;-70
2023/10/06 15:50:03;;;;;;;2.27;2.07;;;17.90;99.90;;;;;;4954249;28;20460;-71
2023/10/06 15:52:30;;;;;;;7.47;2.00;;;17.80;99.90;;;;;;4954527;28;20460;-70
2023/10/06 15:54:57;;;;;;;5.93;3.33;;;17.80;99.90;;;;;;4953880;28;21082;-70
2023/10/06 15:57:23;;;;;;;2.70;2.40;;;17.80;99.90;;;;;;4954551;28;20462;-70
2023/10/06 15:59:50;;;;;;;1.97;1.87;;;17.80;99.90;;;;;;4954323;28;20465;-70
2023/10/06 16:02:19;;;;;;;3.20;3.00;;;17.80;99.90;;;;;;4946294;29;20457;-70
2023/10/06 16:04:50;;;;;;;3.10;2.90;;;17.80;99.90;;;;;;4953968;28;20488;-70
2023/10/06 16:07:18;;;;;;;5.17;2.40;;;17.80;99.90;;;;;;4946464;29;20470;-70
2023/10/06 16:09:45;;;;;;;3.97;2.10;;;17.80;99.90;;;;;;4953741;28;20458;-69
2023/10/06 16:12:13;;;;;;;4.37;2.43;;;17.80;99.90;;;;;;4953361;28;20500;-69
2023/10/06 16:14:39;;;;;;;4.70;2.43;;;17.70;99.90;;;;;;4952852;28;20474;-70
2023/10/06 16:17:06;;;;;;;2.80;1.97;;;17.80;99.90;;;;;;4974383;23;20492;-71
2023/10/06 16:19:36;;;;;;;2.27;1.93;;;17.70;99.90;;;;;;4942863;29;20465;-71
2023/10/06 16:22:03;;;;;;;4.43;1.80;;;17.70;99.90;;;;;;4952248;28;20848;-72
2023/10/06 16:24:30;;;;;;;3.80;2.57;;;17.70;99.90;;;;;;4953277;28;21006;-72
2023/10/06 16:26:57;;;;;;;4.00;2.10;;;17.70;99.90;;;;;;4945350;28;20485;-71
2023/10/06 16:29:25;;;;;;;2.87;2.03;;;17.70;99.90;;;;;;4941041;28;20469;-71
2023/10/06 16:31:52;;;;;;;2.10;2.00;;;17.70;99.90;;;;;;4934652;29;20615;-71
2023/10/06 16:34:19;;;;;;;2.47;2.27;;;17.70;99.90;;;;;;4939304;29;20474;-71
2023/10/06 16:36:47;;;;;;;4.20;2.37;;;17.70;99.90;;;;;;4927065;28;20486;-72
2023/10/06 16:39:21;;;;;;;5.47;2.13;;;17.70;99.90;;;;;;4937797;29;20528;-72
2023/10/06 16:41:48;;;;;;;2.00;1.90;;;17.70;99.90;;;;;;4937972;29;20475;-72
2023/10/06 16:44:15;;;;;;;2.23;2.00;;;17.70;99.90;;;;;;4937669;29;20469;-72
2023/10/06 16:46:41;;;;;;;3.70;3.23;;;17.70;99.90;;;;;;4937971;29;20485;-72
2023/10/06 16:49:08;;;;;;;2.20;1.93;;;17.60;99.90;;;;;;4938121;29;20469;-72
2023/10/06 16:51:35;;;;;;;2.20;2.10;;;17.60;99.90;;;;;;4937691;29;21008;-72
2023/10/06 16:54:04;;;;;;;5.43;2.73;;;17.60;99.90;;;;;;4937783;29;20559;-72
2023/10/06 16:56:31;;;;;;;2.17;1.77;;;17.60;99.90;;;;;;4937819;29;20972;-72
2023/10/06 16:58:59;;;;;;;3.27;2.87;;;17.60;99.90;;;;;;4937678;29;20509;-72
2023/10/06 17:01:27;;;;;;;3.73;2.20;;;17.60;99.90;;;;;;4937900;29;20556;-72
2023/10/06 17:04:01;;;;;;;6.17;2.13;;;17.50;99.90;;;;;;4937736;29;20501;-71
2023/10/06 17:06:29;;;;;;;2.63;2.43;;;17.60;99.90;;;;;;4940643;29;20853;-72